sensor_id;sensor_type;location;lat;lon;timestamp;P1;durP1;ratioP1;P2;durP2;ratioP2
42586;SDS011;28216;53.362;-6.288;2023-02-01T00:01:33;18.50;;;3.78;;
42586;SDS011;28216;53.362;-6.288;2023-02-01T00:03:58;18.13;;;3.80;;
42586;SDS011;28216;53.362;-6.288;2023-02-01T00:06:23;21.50;;;3.75;;
42586;SDS011;28216;53.362;-6.288;2023-02-01T00:08:51;23.05;;;3.85;;
42586;SDS011;28216;53.362;-6.288;2023-02-01T00:11:18;23.83;;;3.92;;
42586;SDS011;28216;53.362;-6.288;2023-02-01T00:13:43;20.75;;;4.10;;
42586;SDS011;28216;53.362;-6.288;2023-02-01T00:16:10;22.15;;;3.92;;
42586;SDS011;28216;53.362;-6.288;2023-02-01T00:18:39;24.58;;;4.43;;
42586;SDS011;28216;53.362;-6.288;2023-02-01T00:21:05;25.83;;;4.65;;
42586;SDS011;28216;53.362;-6.288;2023-02-01T00:23:34;22.48;;;3.75;;
42586;SDS011;28216;53.362;-6.288;2023-02-01T00:26:01;20.52;;;4.00;;
42586;SDS011;28216;53.362;-6.288;2023-02-01T00:28:27;19.60;;;3.85;;
42586;SDS011;28216;53.362;-6.288;2023-02-01T00:31:00;14.70;;;3.40;;
42586;SDS011;28216;53.362;-6.288;2023-02-01T00:33:26;19.60;;;3.75;;
42586;SDS011;28216;53.362;-6.288;2023-02-01T00:35:59;22.45;;;3.65;;
42586;SDS011;28216;53.362;-6.288;2023-02-01T00:38:26;16.95;;;3.33;;
42586;SDS011;28216;53.362;-6.288;2023-02-01T00:40:53;23.38;;;3.83;;
42586;SDS011;28216;53.362;-6.288;2023-02-01T00:43:20;20.70;;;4.32;;
42586;SDS011;28216;53.362;-6.288;2023-02-01T00:45:46;24.98;;;4.30;;
42586;SDS011;28216;53.362;-6.288;2023-02-01T00:48:12;26.65;;;4.60;;
42586;SDS011;28216;53.362;-6.288;2023-02-01T00:50:41;23.45;;;4.00;;
42586;SDS011;28216;53.362;-6.288;2023-02-01T00:53:08;22.27;;;3.50;;
42586;SDS011;28216;53.362;-6.288;2023-02-01T00:55:34;13.48;;;2.88;;
42586;SDS011;28216;53.362;-6.288;2023-02-01T00:57:59;18.88;;;3.70;;
42586;SDS011;28216;53.362;-6.288;2023-02-01T01:00:25;19.75;;;3.50;;
42586;SDS011;28216;53.362;-6.288;2023-02-01T01:02:50;15.77;;;3.63;;
42586;SDS011;28216;53.362;-6.288;2023-02-01T01:05:16;17.38;;;3.53;;
42586;SDS011;28216;53.362;-6.288;2023-02-01T01:07:41;14.65;;;2.95;;
42586;SDS011;28216;53.362;-6.288;2023-02-01T01:10:07;15.88;;;2.92;;
42586;SDS011;28216;53.362;-6.288;2023-02-01T01:12:32;14.35;;;3.33;;
42586;SDS011;28216;53.362;-6.288;2023-02-01T01:14:58;14.15;;;2.67;;
42586;SDS011;28216;53.362;-6.288;2023-02-01T01:17:23;14.88;;;3.65;;
42586;SDS011;28216;53.362;-6.288;2023-02-01T01:19:49;11.90;;;2.63;;
42586;SDS011;28216;53.362;-6.288;2023-02-01T01:22:14;15.90;;;3.75;;
42586;SDS011;28216;53.362;-6.288;2023-02-01T01:24:40;19.25;;;3.47;;
42586;SDS011;28216;53.362;-6.288;2023-02-01T01:27:05;15.95;;;3.22;;
42586;SDS011;28216;53.362;-6.288;2023-02-01T01:29:30;22.55;;;3.58;;
42586;SDS011;28216;53.362;-6.288;2023-02-01T01:31:56;13.70;;;3.25;;
42586;SDS011;28216;53.362;-6.288;2023-02-01T01:34:21;21.70;;;3.63;;
42586;SDS011;28216;53.362;-6.288;2023-02-01T01:36:47;18.60;;;3.45;;
42586;SDS011;28216;53.362;-6.288;2023-02-01T01:39:12;21.60;;;2.70;;
42586;SDS011;28216;53.362;-6.288;2023-02-01T01:41:37;18.88;;;3.25;;
42586;SDS011;28216;53.362;-6.288;2023-02-01T01:44:04;21.10;;;3.78;;
42586;SDS011;28216;53.362;-6.288;2023-02-01T01:46:32;22.27;;;3.47;;
42586;SDS011;28216;53.362;-6.288;2023-02-01T01:49:08;19.40;;;3.42;;
42586;SDS011;28216;53.362;-6.288;2023-02-01T01:51:42;18.02;;;3.13;;
42586;SDS011;28216;53.362;-6.288;2023-02-01T01:54:23;19.73;;;3.35;;
42586;SDS011;28216;53.362;-6.288;2023-02-01T01:56:57;17.00;;;3.05;;
42586;SDS011;28216;53.362;-6.288;2023-02-01T01:59:28;21.65;;;3.50;;
42586;SDS011;28216;53.362;-6.288;2023-02-01T02:01:57;21.23;;;3.45;;
42586;SDS011;28216;53.362;-6.288;2023-02-01T02:04:23;23.50;;;3.85;;
42586;SDS011;28216;53.362;-6.288;2023-02-01T02:06:51;24.23;;;3.20;;
42586;SDS011;28216;53.362;-6.288;2023-02-01T02:09:21;21.98;;;3.35;;
42586;SDS011;28216;53.362;-6.288;2023-02-01T02:11:47;22.85;;;3.67;;
42586;SDS011;28216;53.362;-6.288;2023-02-01T02:14:13;27.23;;;4.07;;
42586;SDS011;28216;53.362;-6.288;2023-02-01T02:22:32;22.55;;;3.90;;
42586;SDS011;28216;53.362;-6.288;2023-02-01T02:25:27;25.17;;;3.67;;
42586;SDS011;28216;53.362;-6.288;2023-02-01T02:31:26;21.30;;;4.28;;
42586;SDS011;28216;53.362;-6.288;2023-02-01T02:46:04;21.83;;;4.22;;
42586;SDS011;28216;53.362;-6.288;2023-02-01T02:49:09;17.88;;;3.67;;
42586;SDS011;28216;53.362;-6.288;2023-02-01T02:51:49;22.92;;;3.80;;
42586;SDS011;28216;53.362;-6.288;2023-02-01T02:54:35;28.23;;;3.97;;
42586;SDS011;28216;53.362;-6.288;2023-02-01T02:57:26;20.48;;;3.63;;
42586;SDS011;28216;53.362;-6.288;2023-02-01T03:00:15;28.17;;;3.83;;
42586;SDS011;28216;53.362;-6.288;2023-02-01T03:03:03;16.48;;;3.33;;
42586;SDS011;28216;53.362;-6.288;2023-02-01T03:05:48;25.50;;;4.28;;
42586;SDS011;28216;53.362;-6.288;2023-02-01T03:16:13;23.30;;;3.60;;
42586;SDS011;28216;53.362;-6.288;2023-02-01T03:21:39;24.65;;;3.72;;
42586;SDS011;28216;53.362;-6.288;2023-02-01T03:24:16;22.73;;;3.65;;
42586;SDS011;28216;53.362;-6.288;2023-02-01T03:26:52;21.33;;;3.97;;
42586;SDS011;28216;53.362;-6.288;2023-02-01T03:29:24;23.80;;;3.30;;
42586;SDS011;28216;53.362;-6.288;2023-02-01T03:31:55;26.92;;;3.58;;
42586;SDS011;28216;53.362;-6.288;2023-02-01T03:34:20;19.70;;;3.60;;
42586;SDS011;28216;53.362;-6.288;2023-02-01T03:37:00;21.02;;;4.10;;
42586;SDS011;28216;53.362;-6.288;2023-02-01T03:42:44;23.00;;;3.85;;
42586;SDS011;28216;53.362;-6.288;2023-02-01T03:47:29;22.85;;;3.40;;
42586;SDS011;28216;53.362;-6.288;2023-02-01T03:50:04;24.50;;;3.58;;
42586;SDS011;28216;53.362;-6.288;2023-02-01T03:52:42;17.85;;;3.47;;
42586;SDS011;28216;53.362;-6.288;2023-02-01T03:55:08;20.90;;;3.28;;
42586;SDS011;28216;53.362;-6.288;2023-02-01T03:57:39;28.88;;;4.18;;
42586;SDS011;28216;53.362;-6.288;2023-02-01T04:02:50;21.75;;;3.42;;
42586;SDS011;28216;53.362;-6.288;2023-02-01T04:05:17;25.05;;;3.65;;
42586;SDS011;28216;53.362;-6.288;2023-02-01T04:07:43;23.00;;;4.32;;
42586;SDS011;28216;53.362;-6.288;2023-02-01T04:10:09;20.27;;;3.33;;
42586;SDS011;28216;53.362;-6.288;2023-02-01T04:12:35;21.40;;;3.75;;
42586;SDS011;28216;53.362;-6.288;2023-02-01T04:15:00;21.42;;;3.20;;
42586;SDS011;28216;53.362;-6.288;2023-02-01T04:17:26;26.05;;;4.22;;
42586;SDS011;28216;53.362;-6.288;2023-02-01T04:19:51;24.05;;;4.47;;
42586;SDS011;28216;53.362;-6.288;2023-02-01T04:22:17;20.60;;;3.33;;
42586;SDS011;28216;53.362;-6.288;2023-02-01T04:24:42;27.15;;;3.67;;
42586;SDS011;28216;53.362;-6.288;2023-02-01T04:27:08;28.08;;;4.40;;
42586;SDS011;28216;53.362;-6.288;2023-02-01T04:29:33;23.70;;;3.58;;
42586;SDS011;28216;53.362;-6.288;2023-02-01T04:31:59;24.42;;;3.90;;
42586;SDS011;28216;53.362;-6.288;2023-02-01T04:34:25;22.80;;;3.55;;
42586;SDS011;28216;53.362;-6.288;2023-02-01T04:36:51;18.85;;;3.25;;
42586;SDS011;28216;53.362;-6.288;2023-02-01T04:39:16;22.75;;;3.65;;
42586;SDS011;28216;53.362;-6.288;2023-02-01T04:41:42;19.58;;;3.20;;
42586;SDS011;28216;53.362;-6.288;2023-02-01T04:44:10;22.75;;;3.50;;
42586;SDS011;28216;53.362;-6.288;2023-02-01T04:46:39;23.98;;;3.55;;
42586;SDS011;28216;53.362;-6.288;2023-02-01T04:49:05;23.02;;;3.40;;
42586;SDS011;28216;53.362;-6.288;2023-02-01T04:51:30;20.90;;;3.45;;
42586;SDS011;28216;53.362;-6.288;2023-02-01T04:53:56;26.98;;;4.28;;
42586;SDS011;28216;53.362;-6.288;2023-02-01T04:56:21;22.40;;;3.75;;
42586;SDS011;28216;53.362;-6.288;2023-02-01T04:58:47;23.05;;;3.45;;
42586;SDS011;28216;53.362;-6.288;2023-02-01T05:01:12;24.65;;;3.50;;
42586;SDS011;28216;53.362;-6.288;2023-02-01T05:03:38;21.48;;;3.72;;
42586;SDS011;28216;53.362;-6.288;2023-02-01T05:06:03;21.55;;;3.45;;
42586;SDS011;28216;53.362;-6.288;2023-02-01T05:08:29;27.88;;;3.97;;
42586;SDS011;28216;53.362;-6.288;2023-02-01T05:10:55;21.45;;;3.22;;
42586;SDS011;28216;53.362;-6.288;2023-02-01T05:13:21;27.92;;;3.63;;
42586;SDS011;28216;53.362;-6.288;2023-02-01T05:16:05;23.48;;;3.45;;
42586;SDS011;28216;53.362;-6.288;2023-02-01T05:18:31;26.92;;;4.32;;
42586;SDS011;28216;53.362;-6.288;2023-02-01T05:20:56;20.33;;;3.83;;
42586;SDS011;28216;53.362;-6.288;2023-02-01T05:23:22;22.48;;;3.58;;
42586;SDS011;28216;53.362;-6.288;2023-02-01T05:25:47;25.02;;;3.40;;
42586;SDS011;28216;53.362;-6.288;2023-02-01T05:28:12;21.40;;;3.97;;
42586;SDS011;28216;53.362;-6.288;2023-02-01T05:30:38;23.25;;;4.35;;
42586;SDS011;28216;53.362;-6.288;2023-02-01T05:33:03;23.98;;;3.83;;
42586;SDS011;28216;53.362;-6.288;2023-02-01T05:35:29;26.63;;;4.03;;
42586;SDS011;28216;53.362;-6.288;2023-02-01T05:37:55;19.27;;;3.67;;
42586;SDS011;28216;53.362;-6.288;2023-02-01T05:40:20;25.08;;;3.70;;
42586;SDS011;28216;53.362;-6.288;2023-02-01T05:42:46;22.90;;;3.30;;
42586;SDS011;28216;53.362;-6.288;2023-02-01T05:45:12;24.23;;;3.80;;
42586;SDS011;28216;53.362;-6.288;2023-02-01T05:47:49;22.77;;;3.67;;
42586;SDS011;28216;53.362;-6.288;2023-02-01T05:50:17;26.95;;;4.28;;
42586;SDS011;28216;53.362;-6.288;2023-02-01T05:52:43;34.67;;;4.38;;
42586;SDS011;28216;53.362;-6.288;2023-02-01T05:55:08;24.92;;;3.55;;
42586;SDS011;28216;53.362;-6.288;2023-02-01T05:57:34;22.77;;;3.72;;
42586;SDS011;28216;53.362;-6.288;2023-02-01T06:00:00;22.77;;;3.33;;
42586;SDS011;28216;53.362;-6.288;2023-02-01T06:02:25;24.73;;;3.42;;
42586;SDS011;28216;53.362;-6.288;2023-02-01T06:04:51;28.48;;;4.03;;
42586;SDS011;28216;53.362;-6.288;2023-02-01T06:07:16;26.38;;;3.50;;
42586;SDS011;28216;53.362;-6.288;2023-02-01T06:09:42;26.45;;;3.67;;
42586;SDS011;28216;53.362;-6.288;2023-02-01T06:12:07;24.00;;;3.35;;
42586;SDS011;28216;53.362;-6.288;2023-02-01T06:14:33;22.00;;;3.40;;
42586;SDS011;28216;53.362;-6.288;2023-02-01T06:17:00;23.17;;;3.35;;
42586;SDS011;28216;53.362;-6.288;2023-02-01T06:19:25;25.42;;;3.85;;
42586;SDS011;28216;53.362;-6.288;2023-02-01T06:21:51;24.40;;;3.78;;
42586;SDS011;28216;53.362;-6.288;2023-02-01T06:24:16;25.77;;;4.03;;
42586;SDS011;28216;53.362;-6.288;2023-02-01T06:26:42;24.00;;;3.40;;
42586;SDS011;28216;53.362;-6.288;2023-02-01T06:29:10;25.20;;;3.67;;
42586;SDS011;28216;53.362;-6.288;2023-02-01T06:31:36;27.92;;;4.68;;
42586;SDS011;28216;53.362;-6.288;2023-02-01T06:34:02;24.42;;;3.88;;
42586;SDS011;28216;53.362;-6.288;2023-02-01T06:36:28;26.40;;;3.75;;
42586;SDS011;28216;53.362;-6.288;2023-02-01T06:38:53;24.95;;;3.42;;
42586;SDS011;28216;53.362;-6.288;2023-02-01T06:41:21;21.98;;;3.45;;
42586;SDS011;28216;53.362;-6.288;2023-02-01T06:43:47;19.60;;;3.92;;
42586;SDS011;28216;53.362;-6.288;2023-02-01T06:46:12;21.35;;;3.53;;
42586;SDS011;28216;53.362;-6.288;2023-02-01T06:48:40;26.45;;;4.30;;
42586;SDS011;28216;53.362;-6.288;2023-02-01T06:51:06;26.15;;;4.55;;
42586;SDS011;28216;53.362;-6.288;2023-02-01T06:53:43;28.10;;;4.13;;
42586;SDS011;28216;53.362;-6.288;2023-02-01T06:56:09;24.60;;;3.72;;
42586;SDS011;28216;53.362;-6.288;2023-02-01T06:58:34;26.90;;;4.07;;
42586;SDS011;28216;53.362;-6.288;2023-02-01T07:01:06;24.48;;;3.45;;
42586;SDS011;28216;53.362;-6.288;2023-02-01T07:03:33;25.98;;;3.80;;
42586;SDS011;28216;53.362;-6.288;2023-02-01T07:05:59;33.22;;;4.75;;
42586;SDS011;28216;53.362;-6.288;2023-02-01T07:08:28;17.67;;;3.83;;
42586;SDS011;28216;53.362;-6.288;2023-02-01T07:10:55;28.90;;;3.50;;
42586;SDS011;28216;53.362;-6.288;2023-02-01T07:13:20;22.15;;;3.40;;
42586;SDS011;28216;53.362;-6.288;2023-02-01T07:15:46;21.20;;;3.03;;
42586;SDS011;28216;53.362;-6.288;2023-02-01T07:18:14;26.48;;;4.25;;
42586;SDS011;28216;53.362;-6.288;2023-02-01T07:20:41;23.83;;;3.53;;
42586;SDS011;28216;53.362;-6.288;2023-02-01T07:23:08;24.65;;;3.50;;
42586;SDS011;28216;53.362;-6.288;2023-02-01T07:25:37;26.92;;;4.35;;
42586;SDS011;28216;53.362;-6.288;2023-02-01T07:28:02;20.50;;;3.70;;
42586;SDS011;28216;53.362;-6.288;2023-02-01T07:30:28;22.13;;;3.72;;
42586;SDS011;28216;53.362;-6.288;2023-02-01T07:32:53;23.30;;;3.75;;
42586;SDS011;28216;53.362;-6.288;2023-02-01T07:35:19;21.65;;;3.78;;
42586;SDS011;28216;53.362;-6.288;2023-02-01T07:37:44;22.85;;;3.70;;
42586;SDS011;28216;53.362;-6.288;2023-02-01T07:40:10;24.25;;;3.50;;
42586;SDS011;28216;53.362;-6.288;2023-02-01T07:42:36;25.55;;;3.42;;
42586;SDS011;28216;53.362;-6.288;2023-02-01T07:45:02;22.77;;;3.92;;
42586;SDS011;28216;53.362;-6.288;2023-02-01T07:47:28;26.30;;;3.70;;
42586;SDS011;28216;53.362;-6.288;2023-02-01T07:49:54;20.65;;;3.72;;
42586;SDS011;28216;53.362;-6.288;2023-02-01T07:52:19;24.90;;;3.90;;
42586;SDS011;28216;53.362;-6.288;2023-02-01T07:54:44;24.55;;;4.32;;
42586;SDS011;28216;53.362;-6.288;2023-02-01T07:57:10;19.63;;;3.85;;
42586;SDS011;28216;53.362;-6.288;2023-02-01T07:59:36;23.60;;;4.28;;
42586;SDS011;28216;53.362;-6.288;2023-02-01T08:02:22;23.60;;;4.13;;
42586;SDS011;28216;53.362;-6.288;2023-02-01T08:04:48;24.77;;;4.00;;
42586;SDS011;28216;53.362;-6.288;2023-02-01T08:07:14;23.77;;;3.22;;
42586;SDS011;28216;53.362;-6.288;2023-02-01T08:09:39;24.95;;;3.72;;
42586;SDS011;28216;53.362;-6.288;2023-02-01T08:12:05;20.73;;;3.88;;
42586;SDS011;28216;53.362;-6.288;2023-02-01T08:14:30;21.95;;;4.28;;
42586;SDS011;28216;53.362;-6.288;2023-02-01T08:16:56;23.77;;;4.40;;
42586;SDS011;28216;53.362;-6.288;2023-02-01T08:19:21;31.27;;;3.88;;
42586;SDS011;28216;53.362;-6.288;2023-02-01T08:21:47;29.40;;;4.40;;
42586;SDS011;28216;53.362;-6.288;2023-02-01T08:24:13;23.33;;;3.85;;
42586;SDS011;28216;53.362;-6.288;2023-02-01T08:26:39;23.92;;;3.88;;
42586;SDS011;28216;53.362;-6.288;2023-02-01T08:29:06;22.13;;;3.10;;
42586;SDS011;28216;53.362;-6.288;2023-02-01T08:31:32;27.83;;;4.15;;
42586;SDS011;28216;53.362;-6.288;2023-02-01T08:33:59;22.92;;;4.18;;
42586;SDS011;28216;53.362;-6.288;2023-02-01T08:36:29;25.48;;;4.50;;
42586;SDS011;28216;53.362;-6.288;2023-02-01T08:38:55;30.42;;;4.15;;
42586;SDS011;28216;53.362;-6.288;2023-02-01T08:41:22;20.63;;;4.10;;
42586;SDS011;28216;53.362;-6.288;2023-02-01T08:43:50;22.15;;;3.47;;
42586;SDS011;28216;53.362;-6.288;2023-02-01T08:46:16;26.88;;;3.65;;
42586;SDS011;28216;53.362;-6.288;2023-02-01T08:48:42;28.17;;;4.20;;
42586;SDS011;28216;53.362;-6.288;2023-02-01T08:51:10;28.52;;;5.05;;
42586;SDS011;28216;53.362;-6.288;2023-02-01T08:53:37;23.08;;;4.10;;
42586;SDS011;28216;53.362;-6.288;2023-02-01T08:56:06;24.95;;;3.88;;
42586;SDS011;28216;53.362;-6.288;2023-02-01T08:58:33;21.42;;;4.50;;
42586;SDS011;28216;53.362;-6.288;2023-02-01T09:01:05;18.60;;;3.17;;
42586;SDS011;28216;53.362;-6.288;2023-02-01T09:03:34;22.90;;;4.15;;
42586;SDS011;28216;53.362;-6.288;2023-02-01T09:06:01;26.00;;;3.40;;
42586;SDS011;28216;53.362;-6.288;2023-02-01T09:08:28;21.17;;;3.42;;
42586;SDS011;28216;53.362;-6.288;2023-02-01T09:10:57;18.98;;;3.33;;
42586;SDS011;28216;53.362;-6.288;2023-02-01T09:13:24;31.13;;;4.47;;
42586;SDS011;28216;53.362;-6.288;2023-02-01T09:15:50;23.83;;;3.72;;
42586;SDS011;28216;53.362;-6.288;2023-02-01T09:18:16;24.40;;;4.30;;
42586;SDS011;28216;53.362;-6.288;2023-02-01T09:20:42;15.65;;;3.40;;
42586;SDS011;28216;53.362;-6.288;2023-02-01T09:23:08;29.42;;;4.40;;
42586;SDS011;28216;53.362;-6.288;2023-02-01T09:25:34;19.13;;;3.50;;
42586;SDS011;28216;53.362;-6.288;2023-02-01T09:28:01;23.55;;;3.90;;
42586;SDS011;28216;53.362;-6.288;2023-02-01T09:30:28;25.10;;;4.30;;
42586;SDS011;28216;53.362;-6.288;2023-02-01T09:32:54;22.67;;;3.83;;
42586;SDS011;28216;53.362;-6.288;2023-02-01T09:35:19;23.52;;;3.78;;
42586;SDS011;28216;53.362;-6.288;2023-02-01T09:37:45;23.33;;;4.45;;
42586;SDS011;28216;53.362;-6.288;2023-02-01T09:40:12;26.30;;;3.90;;
42586;SDS011;28216;53.362;-6.288;2023-02-01T09:43:41;26.20;;;3.60;;
42586;SDS011;28216;53.362;-6.288;2023-02-01T09:48:23;19.77;;;3.85;;
42586;SDS011;28216;53.362;-6.288;2023-02-01T09:50:55;24.67;;;4.10;;
42586;SDS011;28216;53.362;-6.288;2023-02-01T09:53:35;21.17;;;3.70;;
42586;SDS011;28216;53.362;-6.288;2023-02-01T09:58:51;28.20;;;4.35;;
42586;SDS011;28216;53.362;-6.288;2023-02-01T10:01:23;28.17;;;4.20;;
42586;SDS011;28216;53.362;-6.288;2023-02-01T10:03:51;26.17;;;4.05;;
42586;SDS011;28216;53.362;-6.288;2023-02-01T10:06:30;21.95;;;4.05;;
42586;SDS011;28216;53.362;-6.288;2023-02-01T10:14:20;18.42;;;4.38;;
42586;SDS011;28216;53.362;-6.288;2023-02-01T10:22:01;28.63;;;4.18;;
42586;SDS011;28216;53.362;-6.288;2023-02-01T10:24:46;24.00;;;4.10;;
42586;SDS011;28216;53.362;-6.288;2023-02-01T10:27:35;20.65;;;4.03;;
42586;SDS011;28216;53.362;-6.288;2023-02-01T10:32:38;21.52;;;4.13;;
42586;SDS011;28216;53.362;-6.288;2023-02-01T10:35:12;22.38;;;3.78;;
42586;SDS011;28216;53.362;-6.288;2023-02-01T10:37:41;20.58;;;4.22;;
42586;SDS011;28216;53.362;-6.288;2023-02-01T10:40:14;23.98;;;3.53;;
42586;SDS011;28216;53.362;-6.288;2023-02-01T10:42:44;22.67;;;3.47;;
42586;SDS011;28216;53.362;-6.288;2023-02-01T10:45:15;18.38;;;3.17;;
42586;SDS011;28216;53.362;-6.288;2023-02-01T10:47:43;22.17;;;3.45;;
42586;SDS011;28216;53.362;-6.288;2023-02-01T10:50:13;14.68;;;3.90;;
42586;SDS011;28216;53.362;-6.288;2023-02-01T10:55:46;15.23;;;3.33;;
42586;SDS011;28216;53.362;-6.288;2023-02-01T11:00:46;19.40;;;3.67;;
42586;SDS011;28216;53.362;-6.288;2023-02-01T11:06:38;21.77;;;4.38;;
42586;SDS011;28216;53.362;-6.288;2023-02-01T11:11:31;18.90;;;3.47;;
42586;SDS011;28216;53.362;-6.288;2023-02-01T11:13:58;20.10;;;4.07;;
42586;SDS011;28216;53.362;-6.288;2023-02-01T11:16:29;18.77;;;3.75;;
42586;SDS011;28216;53.362;-6.288;2023-02-01T11:19:05;20.30;;;3.90;;
42586;SDS011;28216;53.362;-6.288;2023-02-01T11:21:31;18.90;;;3.35;;
42586;SDS011;28216;53.362;-6.288;2023-02-01T11:24:02;14.85;;;3.53;;
42586;SDS011;28216;53.362;-6.288;2023-02-01T11:26:29;24.52;;;4.35;;
42586;SDS011;28216;53.362;-6.288;2023-02-01T11:28:59;24.95;;;4.20;;
42586;SDS011;28216;53.362;-6.288;2023-02-01T11:31:26;20.60;;;4.00;;
42586;SDS011;28216;53.362;-6.288;2023-02-01T11:34:40;23.75;;;4.22;;
42586;SDS011;28216;53.362;-6.288;2023-02-01T11:36:45;20.20;;;4.20;;
42586;SDS011;28216;53.362;-6.288;2023-02-01T11:42:20;23.48;;;3.70;;
42586;SDS011;28216;53.362;-6.288;2023-02-01T11:44:30;21.50;;;4.53;;
42586;SDS011;28216;53.362;-6.288;2023-02-01T11:49:46;24.77;;;3.78;;
42586;SDS011;28216;53.362;-6.288;2023-02-01T11:52:18;24.73;;;4.15;;
42586;SDS011;28216;53.362;-6.288;2023-02-01T11:57:37;20.38;;;3.70;;
42586;SDS011;28216;53.362;-6.288;2023-02-01T12:00:32;18.08;;;3.63;;
42586;SDS011;28216;53.362;-6.288;2023-02-01T12:35:14;19.88;;;2.88;;
42586;SDS011;28216;53.362;-6.288;2023-02-01T12:51:05;17.77;;;3.40;;
42586;SDS011;28216;53.362;-6.288;2023-02-01T12:56:43;21.23;;;3.80;;
42586;SDS011;28216;53.362;-6.288;2023-02-01T12:59:19;18.48;;;3.53;;
42586;SDS011;28216;53.362;-6.288;2023-02-01T13:02:15;16.58;;;3.42;;
42586;SDS011;28216;53.362;-6.288;2023-02-01T13:05:13;17.05;;;2.90;;
42586;SDS011;28216;53.362;-6.288;2023-02-01T13:10:28;14.55;;;3.58;;
42586;SDS011;28216;53.362;-6.288;2023-02-01T13:13:05;22.10;;;3.90;;
42586;SDS011;28216;53.362;-6.288;2023-02-01T13:15:38;17.85;;;3.17;;
42586;SDS011;28216;53.362;-6.288;2023-02-01T13:18:09;17.20;;;3.20;;
42586;SDS011;28216;53.362;-6.288;2023-02-01T13:20:48;20.08;;;3.67;;
42586;SDS011;28216;53.362;-6.288;2023-02-01T13:23:28;17.55;;;3.33;;
42586;SDS011;28216;53.362;-6.288;2023-02-01T13:25:56;19.15;;;3.58;;
42586;SDS011;28216;53.362;-6.288;2023-02-01T13:31:14;21.27;;;4.03;;
42586;SDS011;28216;53.362;-6.288;2023-02-01T13:44:57;19.58;;;3.38;;
42586;SDS011;28216;53.362;-6.288;2023-02-01T13:47:38;17.45;;;3.38;;
42586;SDS011;28216;53.362;-6.288;2023-02-01T13:50:23;17.45;;;3.22;;
42586;SDS011;28216;53.362;-6.288;2023-02-01T13:53:33;17.30;;;3.53;;
42586;SDS011;28216;53.362;-6.288;2023-02-01T13:55:46;11.82;;;2.80;;
42586;SDS011;28216;53.362;-6.288;2023-02-01T13:58:20;13.80;;;3.03;;
42586;SDS011;28216;53.362;-6.288;2023-02-01T14:01:30;11.30;;;2.40;;
42586;SDS011;28216;53.362;-6.288;2023-02-01T14:03:57;14.88;;;2.60;;
42586;SDS011;28216;53.362;-6.288;2023-02-01T14:09:10;12.35;;;2.20;;
42586;SDS011;28216;53.362;-6.288;2023-02-01T14:11:45;11.25;;;2.30;;
42586;SDS011;28216;53.362;-6.288;2023-02-01T14:17:29;11.52;;;2.20;;
42586;SDS011;28216;53.362;-6.288;2023-02-01T14:19:35;13.60;;;2.55;;
42586;SDS011;28216;53.362;-6.288;2023-02-01T14:24:55;15.88;;;2.65;;
42586;SDS011;28216;53.362;-6.288;2023-02-01T14:27:26;12.40;;;2.40;;
42586;SDS011;28216;53.362;-6.288;2023-02-01T14:30:02;11.27;;;2.20;;
42586;SDS011;28216;53.362;-6.288;2023-02-01T14:32:52;10.38;;;2.63;;
42586;SDS011;28216;53.362;-6.288;2023-02-01T14:35:24;14.43;;;2.50;;
42586;SDS011;28216;53.362;-6.288;2023-02-01T14:37:52;16.52;;;2.83;;
42586;SDS011;28216;53.362;-6.288;2023-02-01T14:40:24;14.82;;;3.15;;
42586;SDS011;28216;53.362;-6.288;2023-02-01T14:42:52;15.73;;;3.08;;
42586;SDS011;28216;53.362;-6.288;2023-02-01T15:01:00;10.75;;;2.88;;
42586;SDS011;28216;53.362;-6.288;2023-02-01T15:11:57;12.52;;;2.72;;
42586;SDS011;28216;53.362;-6.288;2023-02-01T15:14:26;16.25;;;2.92;;
42586;SDS011;28216;53.362;-6.288;2023-02-01T15:16:58;18.27;;;2.70;;
42586;SDS011;28216;53.362;-6.288;2023-02-01T15:19:25;13.95;;;3.80;;
42586;SDS011;28216;53.362;-6.288;2023-02-01T15:21:53;12.43;;;2.60;;
42586;SDS011;28216;53.362;-6.288;2023-02-01T15:24:30;12.23;;;2.45;;
42586;SDS011;28216;53.362;-6.288;2023-02-01T15:27:05;9.70;;;2.25;;
42586;SDS011;28216;53.362;-6.288;2023-02-01T15:29:31;12.55;;;3.38;;
42586;SDS011;28216;53.362;-6.288;2023-02-01T15:31:58;13.45;;;2.55;;
42586;SDS011;28216;53.362;-6.288;2023-02-01T15:34:43;14.45;;;2.90;;
42586;SDS011;28216;53.362;-6.288;2023-02-01T15:37:13;12.27;;;2.85;;
42586;SDS011;28216;53.362;-6.288;2023-02-01T15:42:35;12.63;;;2.65;;
42586;SDS011;28216;53.362;-6.288;2023-02-01T15:45:19;13.68;;;2.83;;
42586;SDS011;28216;53.362;-6.288;2023-02-01T15:47:48;18.20;;;3.13;;
42586;SDS011;28216;53.362;-6.288;2023-02-01T15:50:15;15.90;;;2.72;;
42586;SDS011;28216;53.362;-6.288;2023-02-01T15:52:45;10.55;;;2.83;;
42586;SDS011;28216;53.362;-6.288;2023-02-01T15:55:21;16.88;;;3.55;;
42586;SDS011;28216;53.362;-6.288;2023-02-01T15:57:50;13.10;;;2.53;;
42586;SDS011;28216;53.362;-6.288;2023-02-01T16:00:24;12.88;;;2.72;;
42586;SDS011;28216;53.362;-6.288;2023-02-01T16:02:57;11.52;;;2.25;;
42586;SDS011;28216;53.362;-6.288;2023-02-01T16:08:10;10.60;;;2.33;;
42586;SDS011;28216;53.362;-6.288;2023-02-01T16:10:40;15.30;;;2.70;;
42586;SDS011;28216;53.362;-6.288;2023-02-01T16:13:07;12.40;;;2.47;;
42586;SDS011;28216;53.362;-6.288;2023-02-01T16:15:33;12.85;;;2.88;;
42586;SDS011;28216;53.362;-6.288;2023-02-01T16:18:00;11.18;;;2.75;;
42586;SDS011;28216;53.362;-6.288;2023-02-01T16:20:25;10.23;;;2.40;;
42586;SDS011;28216;53.362;-6.288;2023-02-01T16:22:51;11.52;;;2.40;;
42586;SDS011;28216;53.362;-6.288;2023-02-01T16:25:17;7.85;;;2.20;;
42586;SDS011;28216;53.362;-6.288;2023-02-01T16:27:42;11.35;;;3.20;;
42586;SDS011;28216;53.362;-6.288;2023-02-01T16:30:11;9.45;;;2.63;;
42586;SDS011;28216;53.362;-6.288;2023-02-01T16:32:40;11.95;;;2.60;;
42586;SDS011;28216;53.362;-6.288;2023-02-01T16:35:13;10.68;;;2.55;;
42586;SDS011;28216;53.362;-6.288;2023-02-01T16:37:46;7.93;;;2.30;;
42586;SDS011;28216;53.362;-6.288;2023-02-01T16:40:13;9.82;;;2.40;;
42586;SDS011;28216;53.362;-6.288;2023-02-01T16:42:43;10.05;;;2.53;;
42586;SDS011;28216;53.362;-6.288;2023-02-01T16:45:10;12.98;;;2.95;;
42586;SDS011;28216;53.362;-6.288;2023-02-01T16:47:37;11.23;;;3.10;;
42586;SDS011;28216;53.362;-6.288;2023-02-01T16:50:05;11.32;;;2.70;;
42586;SDS011;28216;53.362;-6.288;2023-02-01T16:52:41;13.60;;;2.47;;
42586;SDS011;28216;53.362;-6.288;2023-02-01T16:55:14;9.05;;;2.50;;
42586;SDS011;28216;53.362;-6.288;2023-02-01T16:57:44;13.13;;;3.13;;
42586;SDS011;28216;53.362;-6.288;2023-02-01T17:00:12;19.23;;;3.40;;
42586;SDS011;28216;53.362;-6.288;2023-02-01T17:02:40;16.40;;;3.60;;
42586;SDS011;28216;53.362;-6.288;2023-02-01T17:05:10;17.52;;;3.33;;
42586;SDS011;28216;53.362;-6.288;2023-02-01T17:07:36;15.25;;;4.03;;
42586;SDS011;28216;53.362;-6.288;2023-02-01T17:10:08;13.32;;;3.28;;
42586;SDS011;28216;53.362;-6.288;2023-02-01T17:12:47;15.52;;;3.15;;
42586;SDS011;28216;53.362;-6.288;2023-02-01T17:15:12;16.27;;;3.40;;
42586;SDS011;28216;53.362;-6.288;2023-02-01T17:17:38;17.67;;;4.50;;
42586;SDS011;28216;53.362;-6.288;2023-02-01T17:20:07;16.20;;;4.97;;
42586;SDS011;28216;53.362;-6.288;2023-02-01T17:22:46;15.13;;;3.33;;
42586;SDS011;28216;53.362;-6.288;2023-02-01T17:25:15;13.30;;;3.42;;
42586;SDS011;28216;53.362;-6.288;2023-02-01T17:27:46;17.63;;;3.55;;
42586;SDS011;28216;53.362;-6.288;2023-02-01T17:30:13;14.20;;;3.65;;
42586;SDS011;28216;53.362;-6.288;2023-02-01T17:32:40;17.08;;;7.15;;
42586;SDS011;28216;53.362;-6.288;2023-02-01T17:35:29;16.13;;;4.22;;
42586;SDS011;28216;53.362;-6.288;2023-02-01T17:37:56;18.05;;;4.10;;